ヴォルゴグラード の空港の天気 - METARとTAF

ヴォルゴグラード国際空港 ( URWW / VOG ) - ロシア ヴォルゴグラード
飛行場実況気象(Metar)
観測時間08/16 09:30 MSK (08/16 06:30 UTC)
風向・風速東南東 3m/s
視程10km以上
天気現象
なし
気温28℃
湿度27%
気圧1018hPa
METARURWW 160630Z 11003MPS 070V150 CAVOK 28/07 Q1018 R06/010070 NOSIG
過去の天気等 Google飛行場航空写真 Wunderground天気予報

過去48時間のMETAR

飛行場予報(TAF)
発表時間: 8/16 07:59 MSK (8/16 04:59 UTC)
予報対象時間: 16日9時 MSK ~ 16日18時 MSK
風向・風速南東 6m/s 瞬間風速 12m/s
視程10km以上
全天の4割程度の雲 雲底高度 1220m
16日9時 MSK ~ 16日18時 MSK に一時的に
風向・風速東南東 5m/s 瞬間風速 10m/s
TAF URWW 160459Z 1606/1615 14006G12MPS 9999 SCT040
TEMPO 1606/1615 11005G10MPS